Aeroporto :
LOGIN :

Iscrizione | Disclaimer

   EN    FR    IT 

 










Sommario :    VFR   VFR Marginale   IFR   IFR Intensivo   IFR Molto Intensivo
Visibilità : 
Base nubi : 
>= 8 km
>= 3000ft
5 / 8 km
1000 / 3000 ft
1500m / 5 km
500 / 1000 ft
800 / 1500m
200 / 500 ft
< 800m
< 200 ft
Simboli :   Temporali  Nebbia  Neve Forte  Precipitazioni Forti  Vento > 20 kt
SIGMETs :   Varie  Temporali  Ghiacco  Turbolenza  Onda orograficha  Ceneri Vulcaniche







- Altitudine del aeroporto : 55 ft
- Codice IATA : DSA
- Carte del aeroporto


EGCN - Robin Hood Doncaster Sheffield

ULTIMO METAR :
  • 230920Z 24005KT 150V300 9999 FEW035 26/18 Q1016

METARs OBSOLETI :
  • 230850Z VRB02KT 9999 FEW040 25/18 Q1016
  • 230820Z 19004KT 130V240 9999 FEW040 24/18 Q1016
  • 230750Z 17004KT 120V210 CAVOK 23/18 Q1016
  • 230720Z 18006KT CAVOK 22/18 Q1016
  • 230650Z 18006KT 9999 FEW031 SCT040 22/18 Q1016

TAF TAF EGCN
Valido dal 23 a 06 ore il 24 a 06 ore UTC


230453Z 2306/2406 24008KT 9999 FEW040
PROB30
TEMPO 2306/2308 8000
Nessun NOTAM noto per questo aeroporto.



MetMap, La meteo Aeronautica in un colpo d'occhio ! - Copyright ORBIFLY Dicembre 2007 - Disclaimer

ORBIFLY MET'MAP TEAM :

Programmazione e sviluppo : Alexandra Zaïnal
Concezione e sviluppo : Baudouin d'Aumeries
Co-Programmazione e sviluppo : Marc-Olivier Méhu
Supporto tecnico e logistico : Manuel Goepfert
Aiuto per la traduzione : Arnaldo La Scala

Contatto : metmap@orbifly.com




FONTI E CREDITI :

   NOAA